createdAt,value
2022-11-02T00:00:21.354Z,78.40
2022-11-02T00:02:50.747Z,78.30
2022-11-02T00:05:23.838Z,78.10
2022-11-02T00:07:52.082Z,77.80
2022-11-02T00:10:20.064Z,77.50
2022-11-02T00:12:48.259Z,77.60
2022-11-02T00:15:16.169Z,78.00
2022-11-02T00:17:45.109Z,78.00
2022-11-02T00:20:15.474Z,78.10
2022-11-02T00:22:43.380Z,78.00
2022-11-02T00:25:12.318Z,77.90
2022-11-02T00:27:40.235Z,78.00
2022-11-02T00:30:09.463Z,77.90
2022-11-02T00:32:37.371Z,77.80
2022-11-02T00:35:05.953Z,77.80
2022-11-02T00:37:35.313Z,77.60
2022-11-02T00:40:03.323Z,77.50
2022-11-02T00:42:31.263Z,77.40
2022-11-02T00:44:59.721Z,77.30
2022-11-02T00:47:27.884Z,77.30
2022-11-02T00:49:55.767Z,77.20
2022-11-02T00:52:23.686Z,77.20
2022-11-02T00:54:54.723Z,77.00
2022-11-02T00:57:22.814Z,77.00
2022-11-02T00:59:50.699Z,77.00
2022-11-02T01:02:18.810Z,77.00
2022-11-02T01:04:46.794Z,77.20
2022-11-02T01:07:14.710Z,76.90
2022-11-02T01:09:43.595Z,76.90
2022-11-02T01:12:13.610Z,76.70
2022-11-02T01:14:42.517Z,76.60
2022-11-02T01:17:10.418Z,76.50
2022-11-02T01:19:38.375Z,76.30
2022-11-02T01:22:06.274Z,76.30
2022-11-02T01:24:35.747Z,76.20
2022-11-02T01:27:04.031Z,76.30
2022-11-02T01:29:33.321Z,76.20
2022-11-02T01:32:01.169Z,76.20
2022-11-02T01:34:29.046Z,76.00
2022-11-02T01:36:56.949Z,75.90
2022-11-02T01:39:24.806Z,75.80
2022-11-02T01:41:53.009Z,75.80
2022-11-02T01:44:28.742Z,75.90
2022-11-02T01:47:00.152Z,75.70
2022-11-02T01:49:28.116Z,76.00
2022-11-02T01:51:58.583Z,75.90
2022-11-02T01:54:27.483Z,75.80
2022-11-02T01:56:57.843Z,75.60
2022-11-02T01:59:31.541Z,75.60
2022-11-02T02:02:00.945Z,75.40
2022-11-02T02:04:29.720Z,75.50
2022-11-02T02:06:58.299Z,75.60
2022-11-02T02:09:26.535Z,75.50
2022-11-02T02:11:54.425Z,75.50
2022-11-02T02:14:22.293Z,75.30
2022-11-02T02:17:02.828Z,75.30
2022-11-02T02:19:36.756Z,75.40
2022-11-02T02:22:30.151Z,75.30
2022-11-02T02:25:05.228Z,75.20
2022-11-02T02:27:46.315Z,75.00
2022-11-02T02:30:14.268Z,75.00
2022-11-02T02:32:46.048Z,75.00
2022-11-02T02:35:22.100Z,75.00
2022-11-02T02:37:52.951Z,74.70
2022-11-02T02:40:21.706Z,74.60
2022-11-02T02:42:53.794Z,74.90
2022-11-02T02:45:24.166Z,74.60
2022-11-02T02:47:53.579Z,74.60
2022-11-02T02:50:23.567Z,74.50
2022-11-02T02:52:51.709Z,74.40
2022-11-02T02:55:35.378Z,74.30
2022-11-02T02:58:04.922Z,74.30
2022-11-02T03:00:33.384Z,74.20
2022-11-02T03:03:04.062Z,73.90
2022-11-02T03:05:34.002Z,73.90
2022-11-02T03:08:05.092Z,73.80
2022-11-02T03:10:34.930Z,74.60
2022-11-02T03:13:23.545Z,73.70
2022-11-02T03:15:53.318Z,73.90
2022-11-02T03:18:25.708Z,73.90
2022-11-02T03:20:58.282Z,73.60
2022-11-02T03:23:29.747Z,73.50
2022-11-02T03:26:00.823Z,73.40
2022-11-02T03:28:47.855Z,73.30
2022-11-02T03:31:20.070Z,73.20
2022-11-02T03:33:50.866Z,73.20
2022-11-02T03:36:20.333Z,73.20
2022-11-02T03:38:50.067Z,73.00
2022-11-02T03:41:18.363Z,73.00
2022-11-02T03:43:47.631Z,72.90
2022-11-02T03:46:15.561Z,72.90
2022-11-02T03:48:45.693Z,72.80
2022-11-02T03:51:16.721Z,72.70
2022-11-02T03:53:47.768Z,72.60
2022-11-02T03:56:18.110Z,72.60
2022-11-02T03:58:47.345Z,72.50
2022-11-02T04:01:15.356Z,72.20
2022-11-02T04:03:45.167Z,71.80
2022-11-02T04:06:13.809Z,71.80
2022-11-02T04:08:43.059Z,72.50
2022-11-02T04:11:29.689Z,72.90
2022-11-02T04:14:22.503Z,73.00
2022-11-02T04:17:11.183Z,73.40
2022-11-02T04:19:39.811Z,73.80
2022-11-02T04:22:26.940Z,74.10
2022-11-02T04:25:18.605Z,74.40
2022-11-02T04:27:56.298Z,74.70
2022-11-02T04:30:30.876Z,75.00
2022-11-02T04:33:18.321Z,75.20
2022-11-02T04:35:54.994Z,75.50
2022-11-02T04:38:40.688Z,75.80
2022-11-02T04:41:34.202Z,76.00
2022-11-02T04:44:02.765Z,76.20
2022-11-02T04:46:33.162Z,76.30
2022-11-02T04:49:04.287Z,76.40
2022-11-02T04:51:34.052Z,76.70
2022-11-02T04:54:02.030Z,76.70
2022-11-02T04:56:30.612Z,76.90
2022-11-02T04:58:59.471Z,77.10
2022-11-02T05:01:30.224Z,77.20
2022-11-02T05:04:01.814Z,77.20
2022-11-02T05:06:32.735Z,77.20
2022-11-02T05:09:00.999Z,77.30
2022-11-02T05:11:29.589Z,77.50
2022-11-02T05:13:58.494Z,77.60
2022-11-02T05:16:26.466Z,77.70
2022-11-02T05:18:55.684Z,77.70
2022-11-02T05:21:26.091Z,77.80
2022-11-02T05:23:55.970Z,77.80
2022-11-02T05:26:24.561Z,77.90
2022-11-02T05:28:52.771Z,78.10
2022-11-02T05:31:21.745Z,78.00
2022-11-02T05:33:50.692Z,78.10
2022-11-02T05:36:21.964Z,78.10
2022-11-02T05:38:54.982Z,78.10
2022-11-02T05:41:23.470Z,78.10
2022-11-02T05:43:53.886Z,78.10
2022-11-02T05:46:23.443Z,78.10
2022-11-02T05:48:51.337Z,78.10
2022-11-02T05:51:19.263Z,78.10
2022-11-02T05:53:47.130Z,78.30
2022-11-02T05:56:19.518Z,78.40
2022-11-02T06:01:23.034Z,78.50
2022-11-02T06:03:53.660Z,78.50
2022-11-02T06:06:21.915Z,78.70
2022-11-02T06:08:49.876Z,78.90
2022-11-02T06:11:19.160Z,78.90
2022-11-02T06:13:49.341Z,78.90
2022-11-02T06:16:22.391Z,78.90
2022-11-02T06:18:51.235Z,79.00
2022-11-02T06:21:19.227Z,79.00
2022-11-02T06:23:48.502Z,79.00
2022-11-02T06:26:16.591Z,79.10
2022-11-02T06:28:45.827Z,79.10
2022-11-02T06:31:17.209Z,79.30
2022-11-02T06:33:45.449Z,79.30
2022-11-02T06:36:13.339Z,79.20
2022-11-02T06:38:42.153Z,79.30
2022-11-02T06:41:10.566Z,79.20
2022-11-02T06:43:40.975Z,79.40
2022-11-02T06:46:10.212Z,79.30
2022-11-02T06:48:38.093Z,79.20
2022-11-02T06:51:06.304Z,79.30
2022-11-02T06:53:34.276Z,79.60
2022-11-02T06:56:02.462Z,79.80
2022-11-02T06:58:30.620Z,80.10
2022-11-02T07:00:59.211Z,80.00
2022-11-02T07:03:28.659Z,80.00
2022-11-02T07:05:56.654Z,79.90
2022-11-02T07:08:24.535Z,79.90
2022-11-02T07:10:52.451Z,80.10
2022-11-02T07:13:20.343Z,79.80
2022-11-02T07:15:48.257Z,79.70
2022-11-02T07:18:16.337Z,79.60
2022-11-02T07:20:45.567Z,79.60
2022-11-02T07:23:13.519Z,79.60
2022-11-02T07:25:41.793Z,79.60
2022-11-02T07:28:10.092Z,79.70
2022-11-02T07:30:38.147Z,79.80
2022-11-02T07:33:06.424Z,79.80
2022-11-02T07:35:34.930Z,79.80
2022-11-02T07:38:05.106Z,79.70
2022-11-02T07:40:34.938Z,79.80
2022-11-02T07:43:03.537Z,79.80
2022-11-02T07:45:42.162Z,79.80
2022-11-02T07:48:10.055Z,79.80
2022-11-02T07:50:38.053Z,79.80
2022-11-02T07:53:07.584Z,79.90
2022-11-02T07:55:35.669Z,79.90
2022-11-02T07:58:04.423Z,79.90
2022-11-02T08:00:33.474Z,79.80
2022-11-02T08:03:02.374Z,79.80
2022-11-02T08:05:31.066Z,79.90
2022-11-02T08:07:59.331Z,79.90
2022-11-02T08:10:28.958Z,79.90
2022-11-02T08:12:57.114Z,79.80
2022-11-02T08:15:25.009Z,79.80
2022-11-02T08:18:01.478Z,79.70
2022-11-02T08:20:29.639Z,79.70
2022-11-02T08:22:57.559Z,79.60
2022-11-02T08:25:25.535Z,79.60
2022-11-02T08:27:56.975Z,79.50
2022-11-02T08:30:24.974Z,79.50
2022-11-02T08:32:56.763Z,79.50
2022-11-02T08:35:25.224Z,79.30
2022-11-02T08:37:56.196Z,79.40
2022-11-02T08:40:24.453Z,79.30
2022-11-02T08:42:58.427Z,79.50
2022-11-02T08:45:26.587Z,79.60
2022-11-02T08:47:54.655Z,79.60
2022-11-02T08:50:22.777Z,79.50
2022-11-02T08:52:50.868Z,79.70
2022-11-02T08:55:19.063Z,79.80
2022-11-02T08:57:47.419Z,80.50
2022-11-02T09:00:17.361Z,80.80
2022-11-02T09:02:45.520Z,81.00
2022-11-02T09:05:13.615Z,81.10
2022-11-02T09:07:41.684Z,81.10
2022-11-02T09:10:10.593Z,81.20
2022-11-02T09:12:38.583Z,81.30
2022-11-02T09:15:07.340Z,81.20
2022-11-02T09:17:36.781Z,81.40
2022-11-02T09:20:05.245Z,81.30
2022-11-02T09:22:33.432Z,81.30
2022-11-02T09:25:01.510Z,81.20
2022-11-02T09:36:30.076Z,79.90
2022-11-02T09:38:58.165Z,81.10
2022-11-02T09:41:31.078Z,81.20
2022-11-02T09:44:02.390Z,81.30
2022-11-02T09:46:32.781Z,81.30
2022-11-02T09:49:01.883Z,81.30
2022-11-02T09:51:34.488Z,81.30
2022-11-02T09:54:07.010Z,81.20
2022-11-02T09:56:35.468Z,81.20
2022-11-02T09:59:05.094Z,82.00
2022-11-02T10:01:40.918Z,81.00
2022-11-02T10:04:21.406Z,80.90
2022-11-02T10:06:55.621Z,80.90
2022-11-02T10:09:26.104Z,80.80
2022-11-02T10:11:56.552Z,80.80
2022-11-02T10:14:25.982Z,80.70
2022-11-02T10:16:56.292Z,80.60
2022-11-02T10:19:26.302Z,80.60
2022-11-02T10:21:59.390Z,80.50
2022-11-02T10:24:30.382Z,80.50
2022-11-02T10:27:01.262Z,80.40
2022-11-02T10:29:38.159Z,80.40
2022-11-02T10:32:06.472Z,80.50
2022-11-02T10:34:34.390Z,80.50
2022-11-02T10:37:12.129Z,80.30
2022-11-02T10:39:43.801Z,80.30
2022-11-02T10:42:26.769Z,80.40
2022-11-02T10:45:05.123Z,80.30
2022-11-02T10:47:34.458Z,80.30
2022-11-02T10:50:15.314Z,81.10
2022-11-02T10:52:45.910Z,80.20
2022-11-02T10:55:20.082Z,80.20
2022-11-02T10:57:48.109Z,80.20
2022-11-02T11:00:30.044Z,80.20
2022-11-02T11:03:08.691Z,80.10
2022-11-02T11:05:38.517Z,80.10
2022-11-02T11:08:08.528Z,80.00
2022-11-02T11:10:38.472Z,80.10
2022-11-02T11:13:07.732Z,80.00
2022-11-02T11:15:51.449Z,80.00
2022-11-02T11:21:08.684Z,80.00
2022-11-02T11:23:37.917Z,79.90
2022-11-02T11:26:06.563Z,79.90
2022-11-02T11:28:37.704Z,79.90
2022-11-02T11:31:10.524Z,79.90
2022-11-02T11:33:46.411Z,79.80
2022-11-02T11:36:23.074Z,79.80
2022-11-02T11:38:52.391Z,79.70
2022-11-02T11:41:20.293Z,79.70
2022-11-02T11:43:48.186Z,79.80
2022-11-02T11:46:16.185Z,79.80
2022-11-02T11:48:46.033Z,79.80
2022-11-02T11:51:26.645Z,79.70
2022-11-02T11:54:25.567Z,79.70
2022-11-02T11:56:54.396Z,79.70
2022-11-02T11:59:24.432Z,79.70
2022-11-02T12:01:54.315Z,79.80
2022-11-02T12:04:29.429Z,79.70
2022-11-02T12:07:15.152Z,80.70
2022-11-02T12:09:46.302Z,79.70
2022-11-02T12:12:17.304Z,79.60
2022-11-02T12:14:50.206Z,79.50
2022-11-02T12:17:37.073Z,79.50
2022-11-02T12:20:18.162Z,79.40
2022-11-02T12:22:50.166Z,79.40
2022-11-02T12:25:32.525Z,79.30
2022-11-02T12:28:04.423Z,79.20
2022-11-02T12:30:34.690Z,79.20
2022-11-02T12:33:07.046Z,79.20
2022-11-02T12:36:01.045Z,79.20
2022-11-02T12:38:54.090Z,79.10
2022-11-02T12:41:32.491Z,79.20
2022-11-02T12:44:03.353Z,79.10
2022-11-02T12:46:39.014Z,79.10
2022-11-02T12:49:21.650Z,79.10
2022-11-02T12:51:52.176Z,79.00
2022-11-02T12:54:21.361Z,79.20
2022-11-02T12:56:51.608Z,79.10
2022-11-02T12:59:23.010Z,79.10
2022-11-02T13:01:53.172Z,79.10
2022-11-02T13:04:26.186Z,79.10
2022-11-02T13:06:59.032Z,79.20
2022-11-02T13:09:29.367Z,79.30
2022-11-02T13:12:01.849Z,79.20
2022-11-02T13:14:31.242Z,79.30
2022-11-02T13:17:02.531Z,79.20
2022-11-02T13:19:33.203Z,79.20
2022-11-02T13:22:01.136Z,79.20
2022-11-02T13:24:32.049Z,79.20
2022-11-02T13:27:14.236Z,79.30
2022-11-02T13:29:50.829Z,79.20
2022-11-02T13:32:22.247Z,79.20
2022-11-02T13:34:50.640Z,79.20
2022-11-02T13:37:20.096Z,79.30
2022-11-02T13:39:49.392Z,79.20
2022-11-02T13:42:56.129Z,79.20
2022-11-02T13:45:43.769Z,79.20
2022-11-02T13:48:40.371Z,79.20
2022-11-02T13:51:12.962Z,79.20
2022-11-02T13:53:41.976Z,79.20
2022-11-02T13:56:10.901Z,79.20
2022-11-02T13:58:42.350Z,79.20
2022-11-02T14:01:11.683Z,79.20
2022-11-02T14:03:47.763Z,79.20
2022-11-02T14:06:16.262Z,79.30
2022-11-02T14:08:48.325Z,79.30
2022-11-02T14:11:37.252Z,79.30
2022-11-02T14:14:23.451Z,79.20
2022-11-02T14:17:13.929Z,79.10
2022-11-02T14:19:55.780Z,79.10
2022-11-02T14:22:23.963Z,79.00
2022-11-02T14:24:56.030Z,79.00
2022-11-02T14:27:30.553Z,78.90
2022-11-02T14:29:59.907Z,78.90
2022-11-02T14:32:41.804Z,78.90
2022-11-02T14:35:29.043Z,78.90
2022-11-02T14:38:29.224Z,78.80
2022-11-02T14:40:59.825Z,78.80
2022-11-02T14:44:01.386Z,78.80
2022-11-02T14:46:45.062Z,78.90
2022-11-02T14:49:18.902Z,78.80
2022-11-02T14:51:46.901Z,78.80
2022-11-02T14:54:17.298Z,78.70
2022-11-02T14:56:50.111Z,78.80
2022-11-02T14:59:21.069Z,78.80
2022-11-02T15:01:54.637Z,78.70
2022-11-02T15:04:22.886Z,78.70
2022-11-02T15:06:53.573Z,78.70
2022-11-02T15:10:01.654Z,78.70
2022-11-02T15:12:47.381Z,78.70
2022-11-02T15:15:39.497Z,78.70
2022-11-02T15:18:24.845Z,78.60
2022-11-02T15:21:24.549Z,78.60
2022-11-02T15:24:15.732Z,78.80
2022-11-02T15:26:52.876Z,78.60
2022-11-02T15:29:35.991Z,78.60
2022-11-02T15:32:04.894Z,78.60
2022-11-02T15:34:36.580Z,78.70
2022-11-02T15:37:04.520Z,78.60
2022-11-02T15:39:32.711Z,78.60
2022-11-02T15:42:05.238Z,78.60
2022-11-02T15:45:20.058Z,78.60
2022-11-02T15:48:00.327Z,78.70
2022-11-02T15:50:40.723Z,78.60
2022-11-02T15:53:35.741Z,78.80
2022-11-02T15:56:30.255Z,79.00
2022-11-02T15:59:27.710Z,79.20
2022-11-02T16:02:04.929Z,79.30
2022-11-02T16:04:33.004Z,80.30
2022-11-02T16:07:06.122Z,79.40
2022-11-02T16:09:35.060Z,79.40
2022-11-02T16:12:04.732Z,79.50
2022-11-02T16:14:33.120Z,79.60
2022-11-02T16:17:01.065Z,79.60
2022-11-02T16:19:28.986Z,79.60
2022-11-02T16:22:01.072Z,79.70
2022-11-02T16:24:30.876Z,79.70
2022-11-02T16:26:58.909Z,79.70
2022-11-02T16:29:30.995Z,79.70
2022-11-02T16:31:58.964Z,79.70
2022-11-02T16:34:27.890Z,79.70
2022-11-02T16:36:55.753Z,79.60
2022-11-02T16:39:26.051Z,79.50
2022-11-02T16:41:57.360Z,79.40
2022-11-02T16:44:26.348Z,79.30
2022-11-02T16:46:56.505Z,79.60
2022-11-02T16:49:24.725Z,79.60
2022-11-02T16:51:53.534Z,79.50
2022-11-02T16:54:29.350Z,79.60
2022-11-02T16:57:00.081Z,79.60
2022-11-02T16:59:27.949Z,79.50
2022-11-02T17:01:59.937Z,79.50
2022-11-02T17:04:28.968Z,79.60
2022-11-02T17:06:57.823Z,79.50
2022-11-02T17:09:27.274Z,79.50
2022-11-02T17:11:55.537Z,79.60
2022-11-02T17:14:24.766Z,79.60
2022-11-02T17:16:58.555Z,79.60
2022-11-02T17:19:48.185Z,79.60
2022-11-02T17:22:18.161Z,79.60
2022-11-02T17:24:46.007Z,79.60
2022-11-02T17:27:24.736Z,79.60
2022-11-02T17:29:54.791Z,79.60
2022-11-02T17:32:22.699Z,79.60
2022-11-02T17:34:51.424Z,79.60
2022-11-02T17:37:25.887Z,79.60
2022-11-02T17:39:53.756Z,79.70
2022-11-02T17:42:39.333Z,79.60
2022-11-02T17:45:28.506Z,79.70
2022-11-02T17:47:56.704Z,79.70
2022-11-02T17:50:24.898Z,79.70
2022-11-02T17:52:53.331Z,79.70
2022-11-02T17:55:22.168Z,79.70
2022-11-02T17:57:50.298Z,79.70
2022-11-02T18:00:18.979Z,79.60
2022-11-02T18:02:49.080Z,79.60
2022-11-02T18:05:24.228Z,79.60
2022-11-02T18:07:52.525Z,79.60
2022-11-02T18:10:20.729Z,79.60
2022-11-02T18:12:49.090Z,79.60
2022-11-02T18:15:19.275Z,79.60
2022-11-02T18:17:48.667Z,79.60
2022-11-02T18:20:16.970Z,79.60
2022-11-02T18:22:45.125Z,79.80
2022-11-02T18:25:16.645Z,80.00
2022-11-02T18:27:44.920Z,80.10
2022-11-02T18:30:14.356Z,80.00
2022-11-02T18:32:42.859Z,79.80
2022-11-02T18:35:13.360Z,79.70
2022-11-02T18:37:42.555Z,79.70
2022-11-02T18:40:12.073Z,79.60
2022-11-02T18:42:40.277Z,79.50
2022-11-02T18:45:08.950Z,80.40
2022-11-02T18:47:36.910Z,79.50
2022-11-02T18:50:05.507Z,79.40
2022-11-02T18:52:34.844Z,79.40
2022-11-02T18:55:03.545Z,79.30
2022-11-02T18:57:31.560Z,79.30
2022-11-02T18:59:59.562Z,79.30
2022-11-02T19:02:27.567Z,79.80
2022-11-02T19:04:55.726Z,80.70
2022-11-02T19:07:41.300Z,81.90
2022-11-02T19:10:10.939Z,82.20
2022-11-02T19:12:39.063Z,82.40
2022-11-02T19:15:07.952Z,82.80
2022-11-02T19:17:35.936Z,82.80
2022-11-02T19:20:04.964Z,83.00
2022-11-02T19:22:32.843Z,83.10
2022-11-02T19:25:02.342Z,83.20
2022-11-02T19:27:31.634Z,83.20
2022-11-02T19:29:59.579Z,83.10
2022-11-02T19:32:27.461Z,83.00
2022-11-02T19:34:56.254Z,83.10
2022-11-02T19:37:24.236Z,83.00
2022-11-02T19:39:52.147Z,83.00
2022-11-02T19:42:20.059Z,83.10
2022-11-02T19:44:49.274Z,82.90
2022-11-02T19:47:17.434Z,82.70
2022-11-02T19:49:50.812Z,82.60
2022-11-02T19:52:18.847Z,82.90
2022-11-02T19:54:46.748Z,82.80
2022-11-02T19:57:14.817Z,82.90
2022-11-02T19:59:42.840Z,83.50
2022-11-02T20:02:12.063Z,83.60
2022-11-02T20:04:42.569Z,83.50
2022-11-02T20:07:10.733Z,83.70
2022-11-02T20:09:38.597Z,83.50
2022-11-02T20:12:07.588Z,83.40
2022-11-02T20:14:36.600Z,83.20
2022-11-02T20:17:29.465Z,83.00
2022-11-02T20:19:53.864Z,83.10
2022-11-02T20:22:21.874Z,83.00
2022-11-02T20:24:49.796Z,83.00
2022-11-02T20:27:17.680Z,82.90
2022-11-02T20:29:46.333Z,83.00
2022-11-02T20:32:14.404Z,83.00
2022-11-02T20:34:42.327Z,83.00
2022-11-02T20:37:11.576Z,82.90
2022-11-02T20:39:39.501Z,82.90
2022-11-02T20:42:09.183Z,82.90
2022-11-02T20:44:37.069Z,82.90
2022-11-02T20:47:05.084Z,82.90
2022-11-02T20:52:23.155Z,82.90
2022-11-02T20:54:51.034Z,83.00
2022-11-02T20:57:18.935Z,83.00
2022-11-02T20:59:46.838Z,83.00
2022-11-02T21:02:14.885Z,83.10
2022-11-02T21:04:42.872Z,83.00
2022-11-02T21:07:10.733Z,83.10
2022-11-02T21:09:40.013Z,83.00
2022-11-02T21:12:26.473Z,83.10
2022-11-02T21:14:54.343Z,83.10
2022-11-02T21:17:22.238Z,83.10
2022-11-02T21:19:57.851Z,82.80
2022-11-02T21:22:30.928Z,82.30
2022-11-02T21:25:00.145Z,81.70
2022-11-02T21:27:28.111Z,81.30
2022-11-02T21:29:56.001Z,80.80
2022-11-02T21:32:23.882Z,80.30
2022-11-02T21:34:51.769Z,80.40
2022-11-02T21:37:19.645Z,80.60
2022-11-02T21:39:47.644Z,80.70
2022-11-02T21:42:16.914Z,81.00
2022-11-02T21:44:44.819Z,81.00
2022-11-02T21:47:13.540Z,81.00
2022-11-02T21:49:41.611Z,80.90
2022-11-02T21:52:09.543Z,80.80
2022-11-02T21:54:37.470Z,80.70
2022-11-02T21:57:05.484Z,80.50
2022-11-02T21:59:34.687Z,80.00
2022-11-02T22:02:01.679Z,80.20
2022-11-02T22:04:31.431Z,80.20
2022-11-02T22:06:59.533Z,80.20
2022-11-02T22:09:27.439Z,80.20
2022-11-02T22:12:09.395Z,80.20
2022-11-02T22:14:38.793Z,80.10
2022-11-02T22:17:16.390Z,80.10
2022-11-02T22:19:50.553Z,80.00
2022-11-02T22:22:18.583Z,80.10
2022-11-02T22:24:46.744Z,80.00
2022-11-02T22:27:14.651Z,80.00
2022-11-02T22:29:43.887Z,80.00
2022-11-02T22:32:11.754Z,80.00
2022-11-02T22:34:39.676Z,79.90
2022-11-02T22:37:24.985Z,79.80
2022-11-02T22:39:52.869Z,79.70
2022-11-02T22:42:20.721Z,79.50
2022-11-02T22:44:50.038Z,79.40
2022-11-02T22:47:18.052Z,79.20
2022-11-02T22:49:45.913Z,79.10
2022-11-02T22:52:13.770Z,79.00
2022-11-02T22:54:41.696Z,78.90
2022-11-02T22:57:09.616Z,78.70
2022-11-02T22:59:37.496Z,78.50
2022-11-02T23:02:06.726Z,78.40
2022-11-02T23:04:34.644Z,78.20
2022-11-02T23:07:02.526Z,77.80
2022-11-02T23:09:30.411Z,77.50
2022-11-02T23:11:57.425Z,77.30
2022-11-02T23:14:25.332Z,77.30
2022-11-02T23:16:53.873Z,77.10
2022-11-02T23:19:30.495Z,76.90
2022-11-02T23:22:17.031Z,76.80
2022-11-02T23:25:03.415Z,76.70
2022-11-02T23:27:31.479Z,76.80
2022-11-02T23:30:16.712Z,76.70
2022-11-02T23:32:44.668Z,76.70
2022-11-02T23:35:31.306Z,76.60
2022-11-02T23:38:03.372Z,76.50
2022-11-02T23:40:31.589Z,76.40
2022-11-02T23:42:59.488Z,76.30
2022-11-02T23:45:27.461Z,76.20
2022-11-02T23:48:00.013Z,76.30
2022-11-02T23:50:48.950Z,76.60
2022-11-02T23:53:35.994Z,76.60
2022-11-02T23:56:21.449Z,76.70
2022-11-02T23:58:49.362Z,76.60
